sensor_id;sensor_type;location;lat;lon;timestamp;P1;durP1;ratioP1;P2;durP2;ratioP2
24713;SDS011;12820;51.580;5.010;2022-10-16T00:00:46;7.97;;;3.17;;
24713;SDS011;12820;51.580;5.010;2022-10-16T00:05:48;8.18;;;2.63;;
24713;SDS011;12820;51.580;5.010;2022-10-16T00:11:27;7.53;;;2.90;;
24713;SDS011;12820;51.580;5.010;2022-10-16T00:16:31;5.00;;;2.78;;
24713;SDS011;12820;51.580;5.010;2022-10-16T00:21:33;6.95;;;3.05;;
24713;SDS011;12820;51.580;5.010;2022-10-16T00:26:39;7.97;;;2.95;;
24713;SDS011;12820;51.580;5.010;2022-10-16T00:31:41;7.40;;;3.30;;
24713;SDS011;12820;51.580;5.010;2022-10-16T00:36:43;5.57;;;2.75;;
24713;SDS011;12820;51.580;5.010;2022-10-16T00:41:45;5.40;;;2.90;;
24713;SDS011;12820;51.580;5.010;2022-10-16T00:46:47;5.70;;;2.75;;
24713;SDS011;12820;51.580;5.010;2022-10-16T00:51:51;6.35;;;2.55;;
24713;SDS011;12820;51.580;5.010;2022-10-16T00:56:56;6.25;;;2.85;;
24713;SDS011;12820;51.580;5.010;2022-10-16T01:02:02;6.55;;;2.53;;
24713;SDS011;12820;51.580;5.010;2022-10-16T01:12:40;8.10;;;2.30;;
24713;SDS011;12820;51.580;5.010;2022-10-16T01:17:51;6.72;;;2.45;;
24713;SDS011;12820;51.580;5.010;2022-10-16T01:28:08;3.70;;;1.70;;
24713;SDS011;12820;51.580;5.010;2022-10-16T01:43:38;6.00;;;1.85;;
24713;SDS011;12820;51.580;5.010;2022-10-16T01:48:44;4.85;;;1.67;;
24713;SDS011;12820;51.580;5.010;2022-10-16T01:53:48;5.25;;;1.98;;
24713;SDS011;12820;51.580;5.010;2022-10-16T01:59:12;5.45;;;2.03;;
24713;SDS011;12820;51.580;5.010;2022-10-16T02:04:33;4.25;;;1.67;;
24713;SDS011;12820;51.580;5.010;2022-10-16T02:09:39;4.53;;;1.80;;
24713;SDS011;12820;51.580;5.010;2022-10-16T02:14:41;5.28;;;1.80;;
24713;SDS011;12820;51.580;5.010;2022-10-16T02:19:44;5.63;;;1.58;;
24713;SDS011;12820;51.580;5.010;2022-10-16T02:24:53;3.63;;;1.45;;
24713;SDS011;12820;51.580;5.010;2022-10-16T02:30:05;5.55;;;1.58;;
24713;SDS011;12820;51.580;5.010;2022-10-16T02:35:13;5.57;;;1.60;;
24713;SDS011;12820;51.580;5.010;2022-10-16T02:40:17;4.22;;;1.50;;
24713;SDS011;12820;51.580;5.010;2022-10-16T02:45:25;3.30;;;1.42;;
24713;SDS011;12820;51.580;5.010;2022-10-16T02:50:27;3.10;;;1.33;;
24713;SDS011;12820;51.580;5.010;2022-10-16T02:55:29;5.82;;;1.60;;
24713;SDS011;12820;51.580;5.010;2022-10-16T03:00:31;3.65;;;1.40;;
24713;SDS011;12820;51.580;5.010;2022-10-16T03:05:33;3.40;;;1.30;;
24713;SDS011;12820;51.580;5.010;2022-10-16T03:10:35;8.45;;;1.88;;
24713;SDS011;12820;51.580;5.010;2022-10-16T03:15:37;5.13;;;1.80;;
24713;SDS011;12820;51.580;5.010;2022-10-16T03:20:39;5.20;;;1.50;;
24713;SDS011;12820;51.580;5.010;2022-10-16T03:25:41;4.38;;;1.50;;
24713;SDS011;12820;51.580;5.010;2022-10-16T03:30:43;4.95;;;1.90;;
24713;SDS011;12820;51.580;5.010;2022-10-16T03:35:50;8.73;;;1.98;;
24713;SDS011;12820;51.580;5.010;2022-10-16T03:40:53;4.75;;;1.67;;
24713;SDS011;12820;51.580;5.010;2022-10-16T03:45:55;3.25;;;1.42;;
24713;SDS011;12820;51.580;5.010;2022-10-16T03:50:58;3.60;;;1.77;;
24713;SDS011;12820;51.580;5.010;2022-10-16T03:56:00;6.43;;;1.92;;
24713;SDS011;12820;51.580;5.010;2022-10-16T04:01:02;5.55;;;1.70;;
24713;SDS011;12820;51.580;5.010;2022-10-16T04:06:04;3.83;;;1.75;;
24713;SDS011;12820;51.580;5.010;2022-10-16T04:11:06;4.20;;;1.75;;
24713;SDS011;12820;51.580;5.010;2022-10-16T04:16:08;3.60;;;1.80;;
24713;SDS011;12820;51.580;5.010;2022-10-16T04:21:10;4.50;;;1.60;;
24713;SDS011;12820;51.580;5.010;2022-10-16T04:26:12;5.70;;;1.73;;
24713;SDS011;12820;51.580;5.010;2022-10-16T04:31:14;5.65;;;1.70;;
24713;SDS011;12820;51.580;5.010;2022-10-16T04:36:16;4.10;;;1.60;;
24713;SDS011;12820;51.580;5.010;2022-10-16T04:41:19;3.95;;;2.00;;
24713;SDS011;12820;51.580;5.010;2022-10-16T04:46:21;4.85;;;1.67;;
24713;SDS011;12820;51.580;5.010;2022-10-16T04:51:23;3.30;;;1.80;;
24713;SDS011;12820;51.580;5.010;2022-10-16T04:56:27;4.20;;;1.70;;
24713;SDS011;12820;51.580;5.010;2022-10-16T05:01:29;5.68;;;2.00;;
24713;SDS011;12820;51.580;5.010;2022-10-16T05:06:31;6.43;;;1.80;;
24713;SDS011;12820;51.580;5.010;2022-10-16T05:11:33;4.82;;;1.67;;
24713;SDS011;12820;51.580;5.010;2022-10-16T05:16:35;6.53;;;2.00;;
24713;SDS011;12820;51.580;5.010;2022-10-16T05:21:38;5.82;;;1.67;;
24713;SDS011;12820;51.580;5.010;2022-10-16T05:26:40;3.88;;;1.65;;
24713;SDS011;12820;51.580;5.010;2022-10-16T05:31:42;4.20;;;1.55;;
24713;SDS011;12820;51.580;5.010;2022-10-16T05:36:44;5.25;;;1.90;;
24713;SDS011;12820;51.580;5.010;2022-10-16T05:41:46;5.40;;;1.63;;
24713;SDS011;12820;51.580;5.010;2022-10-16T05:46:51;6.97;;;2.28;;
24713;SDS011;12820;51.580;5.010;2022-10-16T05:51:53;6.57;;;1.77;;
24713;SDS011;12820;51.580;5.010;2022-10-16T05:56:55;7.45;;;2.28;;
24713;SDS011;12820;51.580;5.010;2022-10-16T06:01:57;7.40;;;2.72;;
24713;SDS011;12820;51.580;5.010;2022-10-16T06:06:59;4.82;;;1.90;;
24713;SDS011;12820;51.580;5.010;2022-10-16T06:12:02;7.57;;;2.20;;
24713;SDS011;12820;51.580;5.010;2022-10-16T06:17:04;7.80;;;2.28;;
24713;SDS011;12820;51.580;5.010;2022-10-16T06:22:06;4.63;;;2.08;;
24713;SDS011;12820;51.580;5.010;2022-10-16T06:27:09;6.82;;;2.33;;
24713;SDS011;12820;51.580;5.010;2022-10-16T06:32:11;6.25;;;2.03;;
24713;SDS011;12820;51.580;5.010;2022-10-16T06:37:14;4.80;;;2.08;;
24713;SDS011;12820;51.580;5.010;2022-10-16T06:42:16;6.07;;;2.10;;
24713;SDS011;12820;51.580;5.010;2022-10-16T06:47:19;8.07;;;1.98;;
24713;SDS011;12820;51.580;5.010;2022-10-16T06:52:21;5.15;;;2.45;;
24713;SDS011;12820;51.580;5.010;2022-10-16T06:57:23;6.70;;;2.38;;
24713;SDS011;12820;51.580;5.010;2022-10-16T07:02:25;6.85;;;2.15;;
24713;SDS011;12820;51.580;5.010;2022-10-16T07:07:27;4.85;;;1.75;;
24713;SDS011;12820;51.580;5.010;2022-10-16T07:12:30;8.38;;;2.20;;
24713;SDS011;12820;51.580;5.010;2022-10-16T07:17:33;9.55;;;2.45;;
24713;SDS011;12820;51.580;5.010;2022-10-16T07:22:35;6.18;;;2.10;;
24713;SDS011;12820;51.580;5.010;2022-10-16T07:27:38;6.13;;;1.75;;
24713;SDS011;12820;51.580;5.010;2022-10-16T07:32:40;6.40;;;2.00;;
24713;SDS011;12820;51.580;5.010;2022-10-16T07:37:45;6.05;;;2.17;;
24713;SDS011;12820;51.580;5.010;2022-10-16T07:42:48;8.52;;;2.08;;
24713;SDS011;12820;51.580;5.010;2022-10-16T07:47:50;8.38;;;2.38;;
24713;SDS011;12820;51.580;5.010;2022-10-16T07:52:52;5.78;;;1.95;;
24713;SDS011;12820;51.580;5.010;2022-10-16T07:57:54;10.13;;;2.63;;
24713;SDS011;12820;51.580;5.010;2022-10-16T08:02:57;4.88;;;2.10;;
24713;SDS011;12820;51.580;5.010;2022-10-16T08:08:02;6.63;;;2.05;;
24713;SDS011;12820;51.580;5.010;2022-10-16T08:13:04;5.55;;;1.95;;
24713;SDS011;12820;51.580;5.010;2022-10-16T08:18:06;7.35;;;2.30;;
24713;SDS011;12820;51.580;5.010;2022-10-16T08:23:08;5.50;;;2.40;;
24713;SDS011;12820;51.580;5.010;2022-10-16T08:28:13;5.78;;;2.00;;
24713;SDS011;12820;51.580;5.010;2022-10-16T08:33:15;8.68;;;2.20;;
24713;SDS011;12820;51.580;5.010;2022-10-16T08:38:17;9.63;;;2.50;;
24713;SDS011;12820;51.580;5.010;2022-10-16T08:53:52;5.13;;;2.45;;
24713;SDS011;12820;51.580;5.010;2022-10-16T08:58:57;7.13;;;1.80;;
24713;SDS011;12820;51.580;5.010;2022-10-16T09:09:43;7.05;;;2.15;;
24713;SDS011;12820;51.580;5.010;2022-10-16T09:20:13;7.00;;;1.83;;
24713;SDS011;12820;51.580;5.010;2022-10-16T09:25:21;11.85;;;1.85;;
24713;SDS011;12820;51.580;5.010;2022-10-16T09:30:25;9.32;;;1.75;;
24713;SDS011;12820;51.580;5.010;2022-10-16T09:35:46;9.32;;;1.90;;
24713;SDS011;12820;51.580;5.010;2022-10-16T09:40:51;7.32;;;1.40;;
24713;SDS011;12820;51.580;5.010;2022-10-16T09:46:04;6.50;;;1.75;;
24713;SDS011;12820;51.580;5.010;2022-10-16T09:51:16;9.48;;;1.63;;
24713;SDS011;12820;51.580;5.010;2022-10-16T09:56:22;13.63;;;1.73;;
24713;SDS011;12820;51.580;5.010;2022-10-16T10:01:44;8.82;;;1.98;;
24713;SDS011;12820;51.580;5.010;2022-10-16T10:27:26;11.40;;;1.50;;
24713;SDS011;12820;51.580;5.010;2022-10-16T10:37:56;10.52;;;1.45;;
24713;SDS011;12820;51.580;5.010;2022-10-16T10:43:21;10.43;;;1.60;;
24713;SDS011;12820;51.580;5.010;2022-10-16T10:48:38;11.18;;;1.55;;
24713;SDS011;12820;51.580;5.010;2022-10-16T10:59:45;12.10;;;2.05;;
24713;SDS011;12820;51.580;5.010;2022-10-16T11:05:02;7.80;;;1.40;;
24713;SDS011;12820;51.580;5.010;2022-10-16T11:10:22;7.25;;;1.38;;
24713;SDS011;12820;51.580;5.010;2022-10-16T11:15:30;11.52;;;1.55;;
24713;SDS011;12820;51.580;5.010;2022-10-16T11:20:37;14.55;;;1.73;;
24713;SDS011;12820;51.580;5.010;2022-10-16T11:25:44;12.02;;;1.85;;
24713;SDS011;12820;51.580;5.010;2022-10-16T11:36:23;10.18;;;1.45;;
24713;SDS011;12820;51.580;5.010;2022-10-16T11:41:38;7.25;;;1.35;;
24713;SDS011;12820;51.580;5.010;2022-10-16T11:47:07;11.80;;;1.90;;
24713;SDS011;12820;51.580;5.010;2022-10-16T11:52:39;7.97;;;1.58;;
24713;SDS011;12820;51.580;5.010;2022-10-16T11:57:50;9.40;;;2.03;;
24713;SDS011;12820;51.580;5.010;2022-10-16T12:02:58;7.63;;;1.60;;
24713;SDS011;12820;51.580;5.010;2022-10-16T12:08:14;8.60;;;1.50;;
24713;SDS011;12820;51.580;5.010;2022-10-16T12:13:37;7.05;;;1.52;;
24713;SDS011;12820;51.580;5.010;2022-10-16T12:18:45;8.25;;;1.58;;
24713;SDS011;12820;51.580;5.010;2022-10-16T12:23:49;14.00;;;2.90;;
24713;SDS011;12820;51.580;5.010;2022-10-16T12:28:52;9.60;;;2.20;;
24713;SDS011;12820;51.580;5.010;2022-10-16T12:33:59;10.55;;;2.67;;
24713;SDS011;12820;51.580;5.010;2022-10-16T12:39:05;8.88;;;1.42;;
24713;SDS011;12820;51.580;5.010;2022-10-16T12:44:21;10.45;;;1.88;;
24713;SDS011;12820;51.580;5.010;2022-10-16T12:49:34;8.13;;;2.00;;
24713;SDS011;12820;51.580;5.010;2022-10-16T12:54:39;12.15;;;2.42;;
24713;SDS011;12820;51.580;5.010;2022-10-16T13:10:28;6.80;;;1.30;;
24713;SDS011;12820;51.580;5.010;2022-10-16T13:15:57;6.15;;;1.48;;
24713;SDS011;12820;51.580;5.010;2022-10-16T13:21:09;16.70;;;2.70;;
24713;SDS011;12820;51.580;5.010;2022-10-16T13:31:48;9.85;;;1.50;;
24713;SDS011;12820;51.580;5.010;2022-10-16T13:36:51;7.20;;;1.20;;
24713;SDS011;12820;51.580;5.010;2022-10-16T13:42:38;8.00;;;1.30;;
24713;SDS011;12820;51.580;5.010;2022-10-16T13:47:29;6.90;;;0.88;;
24713;SDS011;12820;51.580;5.010;2022-10-16T13:52:32;4.47;;;1.00;;
24713;SDS011;12820;51.580;5.010;2022-10-16T13:57:34;7.53;;;1.27;;
24713;SDS011;12820;51.580;5.010;2022-10-16T14:02:37;7.72;;;1.48;;
24713;SDS011;12820;51.580;5.010;2022-10-16T14:07:41;5.38;;;0.90;;
24713;SDS011;12820;51.580;5.010;2022-10-16T14:12:44;4.68;;;1.05;;
24713;SDS011;12820;51.580;5.010;2022-10-16T14:17:48;7.28;;;1.20;;
24713;SDS011;12820;51.580;5.010;2022-10-16T14:23:02;7.75;;;1.23;;
24713;SDS011;12820;51.580;5.010;2022-10-16T14:38:48;7.03;;;1.15;;
24713;SDS011;12820;51.580;5.010;2022-10-16T14:44:03;5.72;;;1.08;;
24713;SDS011;12820;51.580;5.010;2022-10-16T14:54:11;5.40;;;1.10;;
24713;SDS011;12820;51.580;5.010;2022-10-16T15:04:35;5.95;;;1.30;;
24713;SDS011;12820;51.580;5.010;2022-10-16T15:09:37;4.88;;;0.90;;
24713;SDS011;12820;51.580;5.010;2022-10-16T15:14:39;6.53;;;1.02;;
24713;SDS011;12820;51.580;5.010;2022-10-16T15:19:41;5.78;;;1.35;;
24713;SDS011;12820;51.580;5.010;2022-10-16T15:24:43;5.45;;;1.10;;
24713;SDS011;12820;51.580;5.010;2022-10-16T15:29:45;5.18;;;0.93;;
24713;SDS011;12820;51.580;5.010;2022-10-16T15:34:47;6.97;;;1.15;;
24713;SDS011;12820;51.580;5.010;2022-10-16T15:39:50;7.80;;;1.40;;
24713;SDS011;12820;51.580;5.010;2022-10-16T15:44:52;7.35;;;1.55;;
24713;SDS011;12820;51.580;5.010;2022-10-16T15:49:54;6.25;;;1.58;;
24713;SDS011;12820;51.580;5.010;2022-10-16T15:54:56;4.47;;;1.55;;
24713;SDS011;12820;51.580;5.010;2022-10-16T15:59:58;5.35;;;1.40;;
24713;SDS011;12820;51.580;5.010;2022-10-16T16:05:00;5.90;;;1.52;;
24713;SDS011;12820;51.580;5.010;2022-10-16T16:10:04;8.20;;;2.42;;
24713;SDS011;12820;51.580;5.010;2022-10-16T16:15:07;9.25;;;1.85;;
24713;SDS011;12820;51.580;5.010;2022-10-16T16:20:11;7.72;;;1.77;;
24713;SDS011;12820;51.580;5.010;2022-10-16T16:25:13;4.55;;;1.80;;
24713;SDS011;12820;51.580;5.010;2022-10-16T16:30:15;4.45;;;1.52;;
24713;SDS011;12820;51.580;5.010;2022-10-16T16:35:21;7.45;;;2.10;;
24713;SDS011;12820;51.580;5.010;2022-10-16T16:40:23;7.93;;;2.17;;
24713;SDS011;12820;51.580;5.010;2022-10-16T16:45:25;8.63;;;2.25;;
24713;SDS011;12820;51.580;5.010;2022-10-16T16:50:28;7.43;;;2.50;;
24713;SDS011;12820;51.580;5.010;2022-10-16T16:55:32;9.70;;;2.80;;
24713;SDS011;12820;51.580;5.010;2022-10-16T17:00:34;8.15;;;3.08;;
24713;SDS011;12820;51.580;5.010;2022-10-16T17:05:36;12.65;;;3.70;;
24713;SDS011;12820;51.580;5.010;2022-10-16T17:10:44;10.35;;;3.10;;
24713;SDS011;12820;51.580;5.010;2022-10-16T17:15:47;9.85;;;3.03;;
24713;SDS011;12820;51.580;5.010;2022-10-16T17:20:50;9.85;;;4.00;;
24713;SDS011;12820;51.580;5.010;2022-10-16T17:25:52;11.32;;;3.60;;
24713;SDS011;12820;51.580;5.010;2022-10-16T17:30:54;9.10;;;3.10;;
24713;SDS011;12820;51.580;5.010;2022-10-16T17:35:57;14.10;;;3.10;;
24713;SDS011;12820;51.580;5.010;2022-10-16T17:41:09;12.43;;;3.30;;
24713;SDS011;12820;51.580;5.010;2022-10-16T17:46:16;9.02;;;3.25;;
24713;SDS011;12820;51.580;5.010;2022-10-16T17:51:24;12.20;;;3.80;;
24713;SDS011;12820;51.580;5.010;2022-10-16T17:56:28;9.57;;;3.05;;
24713;SDS011;12820;51.580;5.010;2022-10-16T18:01:32;9.30;;;4.90;;
24713;SDS011;12820;51.580;5.010;2022-10-16T18:06:37;12.15;;;6.25;;
24713;SDS011;12820;51.580;5.010;2022-10-16T18:11:40;13.55;;;6.53;;
24713;SDS011;12820;51.580;5.010;2022-10-16T18:16:42;23.63;;;11.98;;
24713;SDS011;12820;51.580;5.010;2022-10-16T18:21:45;17.65;;;9.52;;
24713;SDS011;12820;51.580;5.010;2022-10-16T18:26:48;19.05;;;7.90;;
24713;SDS011;12820;51.580;5.010;2022-10-16T18:31:50;12.18;;;5.95;;
24713;SDS011;12820;51.580;5.010;2022-10-16T18:36:53;13.23;;;5.70;;
24713;SDS011;12820;51.580;5.010;2022-10-16T18:41:56;13.10;;;6.50;;
24713;SDS011;12820;51.580;5.010;2022-10-16T18:47:00;9.82;;;4.68;;
24713;SDS011;12820;51.580;5.010;2022-10-16T18:52:03;10.45;;;3.75;;
24713;SDS011;12820;51.580;5.010;2022-10-16T18:57:05;7.90;;;3.20;;
24713;SDS011;12820;51.580;5.010;2022-10-16T19:02:07;6.40;;;3.30;;
24713;SDS011;12820;51.580;5.010;2022-10-16T19:07:10;11.32;;;3.72;;
24713;SDS011;12820;51.580;5.010;2022-10-16T19:12:12;9.38;;;3.45;;
24713;SDS011;12820;51.580;5.010;2022-10-16T19:17:14;7.65;;;3.35;;
24713;SDS011;12820;51.580;5.010;2022-10-16T19:22:16;6.25;;;3.20;;
24713;SDS011;12820;51.580;5.010;2022-10-16T19:27:29;10.13;;;3.20;;
24713;SDS011;12820;51.580;5.010;2022-10-16T19:32:31;8.68;;;3.42;;
24713;SDS011;12820;51.580;5.010;2022-10-16T19:37:33;7.22;;;3.42;;
24713;SDS011;12820;51.580;5.010;2022-10-16T19:42:36;13.07;;;4.25;;
24713;SDS011;12820;51.580;5.010;2022-10-16T19:47:44;7.97;;;3.90;;
24713;SDS011;12820;51.580;5.010;2022-10-16T19:52:46;6.95;;;3.60;;
24713;SDS011;12820;51.580;5.010;2022-10-16T19:57:48;10.48;;;3.75;;
24713;SDS011;12820;51.580;5.010;2022-10-16T20:02:50;8.00;;;3.33;;
24713;SDS011;12820;51.580;5.010;2022-10-16T20:07:52;7.80;;;3.40;;
24713;SDS011;12820;51.580;5.010;2022-10-16T20:12:54;6.45;;;3.28;;
24713;SDS011;12820;51.580;5.010;2022-10-16T20:17:56;11.95;;;3.25;;
24713;SDS011;12820;51.580;5.010;2022-10-16T20:22:58;6.93;;;3.10;;
24713;SDS011;12820;51.580;5.010;2022-10-16T20:28:00;5.93;;;3.10;;
24713;SDS011;12820;51.580;5.010;2022-10-16T20:33:03;7.95;;;3.40;;
24713;SDS011;12820;51.580;5.010;2022-10-16T20:38:05;9.02;;;3.20;;
24713;SDS011;12820;51.580;5.010;2022-10-16T20:43:15;8.57;;;3.88;;
24713;SDS011;12820;51.580;5.010;2022-10-16T20:48:18;7.57;;;3.17;;
24713;SDS011;12820;51.580;5.010;2022-10-16T20:53:21;9.52;;;3.50;;
24713;SDS011;12820;51.580;5.010;2022-10-16T20:58:23;7.53;;;3.40;;
24713;SDS011;12820;51.580;5.010;2022-10-16T21:03:25;15.93;;;4.03;;
24713;SDS011;12820;51.580;5.010;2022-10-16T21:08:27;7.75;;;3.72;;
24713;SDS011;12820;51.580;5.010;2022-10-16T21:13:29;10.65;;;4.25;;
24713;SDS011;12820;51.580;5.010;2022-10-16T21:18:31;10.05;;;4.47;;
24713;SDS011;12820;51.580;5.010;2022-10-16T21:23:34;8.77;;;4.00;;
24713;SDS011;12820;51.580;5.010;2022-10-16T21:28:36;13.05;;;4.75;;
24713;SDS011;12820;51.580;5.010;2022-10-16T21:33:38;9.98;;;4.78;;
24713;SDS011;12820;51.580;5.010;2022-10-16T21:38:40;10.75;;;4.65;;
24713;SDS011;12820;51.580;5.010;2022-10-16T21:43:42;11.93;;;3.95;;
24713;SDS011;12820;51.580;5.010;2022-10-16T21:48:45;9.20;;;4.85;;
24713;SDS011;12820;51.580;5.010;2022-10-16T21:53:47;9.30;;;5.60;;
24713;SDS011;12820;51.580;5.010;2022-10-16T21:58:49;10.07;;;5.30;;
24713;SDS011;12820;51.580;5.010;2022-10-16T22:03:51;8.82;;;5.55;;
24713;SDS011;12820;51.580;5.010;2022-10-16T22:08:55;10.98;;;5.82;;
24713;SDS011;12820;51.580;5.010;2022-10-16T22:14:02;10.75;;;6.03;;
24713;SDS011;12820;51.580;5.010;2022-10-16T22:19:06;11.80;;;6.43;;
24713;SDS011;12820;51.580;5.010;2022-10-16T22:24:08;12.90;;;6.35;;
24713;SDS011;12820;51.580;5.010;2022-10-16T22:29:12;12.73;;;5.88;;
24713;SDS011;12820;51.580;5.010;2022-10-16T22:34:15;10.13;;;6.05;;
24713;SDS011;12820;51.580;5.010;2022-10-16T22:39:17;17.15;;;7.00;;
24713;SDS011;12820;51.580;5.010;2022-10-16T22:44:19;11.43;;;6.68;;
24713;SDS011;12820;51.580;5.010;2022-10-16T22:49:21;13.93;;;7.05;;
24713;SDS011;12820;51.580;5.010;2022-10-16T22:54:24;13.27;;;6.13;;
24713;SDS011;12820;51.580;5.010;2022-10-16T22:59:26;12.90;;;6.15;;
24713;SDS011;12820;51.580;5.010;2022-10-16T23:04:28;12.73;;;7.03;;
24713;SDS011;12820;51.580;5.010;2022-10-16T23:09:32;10.65;;;6.88;;
24713;SDS011;12820;51.580;5.010;2022-10-16T23:14:34;11.43;;;6.95;;
24713;SDS011;12820;51.580;5.010;2022-10-16T23:19:36;13.48;;;6.65;;
24713;SDS011;12820;51.580;5.010;2022-10-16T23:24:38;13.25;;;6.70;;
24713;SDS011;12820;51.580;5.010;2022-10-16T23:29:40;10.27;;;6.15;;
24713;SDS011;12820;51.580;5.010;2022-10-16T23:34:42;11.40;;;6.05;;
24713;SDS011;12820;51.580;5.010;2022-10-16T23:39:44;11.48;;;6.75;;
24713;SDS011;12820;51.580;5.010;2022-10-16T23:44:46;12.27;;;7.25;;
24713;SDS011;12820;51.580;5.010;2022-10-16T23:49:48;10.65;;;6.70;;
24713;SDS011;12820;51.580;5.010;2022-10-16T23:54:50;13.18;;;7.20;;
24713;SDS011;12820;51.580;5.010;2022-10-16T23:59:52;11.50;;;6.90;;
